首页
METAR-TAF:

METAR-TAF

机场 :

Abu Musa, 伊朗

纬度: 25-52-33N, 经度: 055-02-01E, 海拔: 7米

当前天气观测

该预报发布于1小时和5分钟前的08:00 UTC
风速6节,风向西南
温度 32°C
湿度 75%
气压 1014 hPa
能見度: 3000
少量云层高于2500英尺

METAR: OIBA 170800Z 23006KT 3000 HZ FEW025 32/27 Q1014

时间: 12:35 (09:05 UTC)


TAF: 丢失

超过4000个机场的气象观测和天气预报(METAR&TAF报告)。

可查询的气象台以黄色和红色小点在地图上表示。

将鼠标移到小点上方,可查看气象台名称。

然后点击查看天气观测和预报。

如需切换地图:点击带黑十字的绿色按钮放大地图;点击带横线的绿色按钮缩小地图;或者点击绿色箭头查看邻近地区的地图。


METAR-TAF: